METAR Data
IDs: Format: Raw Decoded Include TAF

Data at: 1255 UTC 16 Jul 2019

K4R5 161235Z AUTO 22004KT 10SM CLR 22/20 A2982 RMK AO2 T02150199
K4R5 161215Z AUTO 23004KT 10SM CLR 21/20 A2981 RMK AO2 T02100196
K4R5 161155Z AUTO 24004KT 10SM CLR 21/20 A2980 RMK AO2 T02050195
K4R5 161135Z AUTO 23004KT 10SM CLR 20/20 A2979 RMK AO2 T02020195
K4R5 161115Z AUTO 22003KT 10SM CLR 20/19 A2978 RMK AO2 T01980192
K4R5 161055Z AUTO 24003KT 10SM CLR 20/19 A2978 RMK AO2 T01950191
K4R5 161035Z AUTO 23003KT 10SM CLR 20/19 A2978 RMK AO2 T01960192
K4R5 161015Z AUTO 23004KT 10SM CLR 20/19 A2977 RMK AO2 T01970192
K4R5 160955Z AUTO 23003KT 10SM CLR 20/19 A2977 RMK AO2 T02000192
K4R5 160935Z AUTO 23003KT 10SM CLR 20/19 A2976 RMK AO2 T02000192
K4R5 160915Z AUTO 00000KT 10SM CLR 20/19 A2976 RMK AO2 T02000192
K4R5 160855Z AUTO 21003KT 10SM CLR 20/19 A2976 RMK AO2 T02000193
K4R5 160835Z AUTO 22005KT 10SM CLR 20/19 A2976 RMK AO2 T02000193
K4R5 160755Z AUTO 23004KT 10SM CLR 20/19 A2976 RMK AO2 T02020192
K4R5 160735Z AUTO 22006KT 10SM CLR 21/19 A2975 RMK AO2 T02050192
K4R5 160715Z AUTO 21006KT 10SM CLR 21/19 A2975 RMK AO2 T02050192
K4R5 160655Z AUTO 21007KT 10SM CLR 21/19 A2976 RMK AO2 T02050192
K4R5 160635Z AUTO 21006KT 10SM SCT046 21/19 A2976 RMK AO2 T02070193
K4R5 160615Z AUTO 21005KT 10SM CLR 21/19 A2976 RMK AO2 T02060193
K4R5 160555Z AUTO 20005KT 10SM SCT041 21/19 A2976 RMK AO2 T02100193
K4R5 160535Z AUTO 21007KT 10SM CLR 21/20 A2976 RMK AO2 T02100195
K4R5 160515Z AUTO 20006KT 10SM CLR 21/20 A2975 RMK AO2 T02110195
K4R5 160455Z AUTO 21008KT 10SM CLR 21/20 A2975 RMK AO2 T02130196
K4R5 160435Z AUTO 21007KT 10SM CLR 22/20 A2975 RMK AO2 T02150198
K4R5 160415Z AUTO 20007KT 10SM CLR 22/20 A2975 RMK AO2 T02150199
K4R5 160355Z AUTO 20007KT 10SM CLR 22/20 A2975 RMK AO2 T02150200
K4R5 160335Z AUTO 22006KT 10SM CLR 22/20 A2975 RMK AO2 LTG DSNT E T02150200
K4R5 160315Z AUTO 21007KT 160V240 10SM CLR 21/20 A2975 RMK AO2 T02130200
K4R5 160255Z AUTO 21004KT 10SM CLR 21/20 A2975 RMK AO2 LTG DSNT E T02090197
K4R5 160235Z AUTO 22004KT 10SM CLR 20/20 A2975 RMK AO2 LTG DSNT S T02020195
K4R5 160215Z AUTO 00000KT 10SM SCT050 21/20 A2974 RMK AO2 T02060197
K4R5 160155Z AUTO 00000KT 10SM SCT007 BKN050 21/20 A2975 RMK AO2 LTG DSNT SE AND S T02070197
K4R5 160135Z AUTO 00000KT 10SM SCT007 SCT110 21/20 A2975 RMK AO2 LTG DSNT E T02080200
K4R5 160115Z AUTO 00000KT 10SM SCT095 21/20 A2974 RMK AO2 LTG DSNT E AND SE T02100196
K4R5 160055Z AUTO 15003KT 10SM SCT095 21/19 A2970 RMK AO2 LTG DSNT E THRU S T02050192
K4R5 160035Z AUTO 17006KT 10SM CLR 21/19 A2971 RMK AO2 LTG DSNT E AND S T02060190
K4R5 160015Z AUTO 19006KT 10SM SCT120 20/19 A2971 RMK AO2 LTG DSNT N THRU S T02030187
K4R5 152355Z AUTO 19003KT 10SM -TSRA SCT050 SCT070 BKN100 20/19 A2970 RMK AO2 LTG DSNT NE THRU S P0091 T01950185
K4R5 152335Z AUTO 27004KT 5SM TSRA SCT011 BKN049 OVC100 20/18 A2970 RMK AO2 LTG DSNT ALQS P0091 T01990180
K4R5 152315Z AUTO 29015G30KT 1 1/4SM +TSRA BKN010 OVC025 20/18 A2975 RMK AO2 LTG DSNT ALQS P0055 T01970181
K4R5 152255Z AUTO 27004KT 10SM VCTS BKN065 BKN095 BKN120 29/22 A2970 RMK AO2 LTG DSNT ALQS T02910218
K4R5 152235Z AUTO 18003KT 10SM SCT060 SCT090 30/22 A2968 RMK AO2 LTG DSNT ALQS T02990218
K4R5 152215Z AUTO 21007KT 170V250 10SM BKN060 BKN070 BKN085 31/21 A2970 RMK AO2 LTG DSNT N AND W T03060213
K4R5 152155Z AUTO 21008KT 130V290 10SM VCTS BKN060 BKN070 BKN110 31/22 A2971 RMK AO2 LTG DSNT W AND NW T03070216
K4R5 152135Z AUTO 21006G17KT 10SM SCT048 32/22 A2970 RMK AO2 T03190222
K4R5 152115Z AUTO 20006KT 10SM SCT046 32/23 A2970 RMK AO2 LTG DSNT NW T03220227
K4R5 152055Z AUTO 20005G16KT 10SM SCT046 SCT050 32/23 A2970 RMK AO2 LTG DSNT SE AND NW T03180228
K4R5 152035Z AUTO 21009G16KT 160V240 10SM SCT050 SCT075 SCT085 32/23 A2970 RMK AO2 LTG DSNT NW T03180228
K4R5 152015Z AUTO 20006G15KT 10SM SCT046 SCT055 31/23 A2970 RMK AO2 T03060227
K4R5 151955Z AUTO 20007KT 140V220 10SM CLR 32/23 A2972 RMK AO2 LTG DSNT NE SE AND W T03150233
K4R5 151935Z AUTO 17007KT 130V210 10SM CLR 31/23 A2975 RMK AO2 T03090233
K4R5 151915Z AUTO 17006KT 10SM SCT050 SCT090 31/23 A2976 RMK AO2 LTG DSNT NW T03050229
K4R5 151855Z AUTO 19008KT 160V220 10SM SCT048 SCT090 31/23 A2977 RMK AO2 T03140230
K4R5 151835Z AUTO 18005KT 10SM SCT048 SCT050 SCT100 31/23 A2977 RMK AO2 T03100229
K4R5 151815Z AUTO 20004KT 10SM CLR 31/23 A2978 RMK AO2 T03090229
K4R5 151755Z AUTO 17005KT 10SM CLR 31/23 A2978 RMK AO2 T03050226
K4R5 151735Z AUTO 20005KT 10SM CLR 30/23 A2978 RMK AO2 T03000228
K4R5 151715Z AUTO 21005KT 10SM CLR 30/23 A2979 RMK AO2 T02960226
K4R5 151655Z AUTO 18005KT 10SM CLR 29/22 A2980 RMK AO2 T02890223
K4R5 151635Z AUTO 18007KT 130V210 10SM CLR 28/22 A2980 RMK AO2 T02840221
K4R5 151615Z AUTO 20008KT 160V220 10SM CLR 28/22 A2982 RMK AO2 T02790219
K4R5 151555Z AUTO 17003KT 10SM CLR 27/22 A2982 RMK AO2 T02740220
K4R5 151535Z AUTO 19003KT 10SM CLR 27/22 A2983 RMK AO2 T02670215
K4R5 151515Z AUTO 22005KT 10SM CLR 26/21 A2984 RMK AO2 T02580211
K4R5 151455Z AUTO 16003KT 10SM CLR 26/21 A2984 RMK AO2 T02580209
K4R5 151435Z AUTO 17005KT 10SM CLR 25/20 A2985 RMK AO2 T02500204
K4R5 151415Z AUTO 00000KT 10SM CLR 24/20 A2987 RMK AO2 T02430204
K4R5 151355Z AUTO 17005KT 10SM CLR 24/20 A2987 RMK AO2 T02360203
K4R5 151335Z AUTO 00000KT 10SM CLR 22/20 A2988 RMK AO2 T02210202
K4R5 151315Z AUTO 00000KT 10SM CLR 23/20 A2988 RMK AO2 T02250201
K4R5 151255Z AUTO 00000KT 10SM CLR 22/20 A2989 RMK AO2 T02220201
K4R5 151235Z AUTO 19003KT 10SM SCT120 22/20 A2990 RMK AO2 T02170198
K4R5 151215Z AUTO 19003KT 10SM -RA SCT120 23/20 A2990 RMK AO2 T02250200
K4R5 151155Z AUTO 00000KT 10SM CLR 21/20 A2990 RMK AO2 T02130201
K4R5 151135Z AUTO 00000KT 10SM CLR 20/20 A2991 RMK AO2 LTG DSNT W T02030196
K4R5 151115Z AUTO 00000KT 10SM SCT065 SCT075 SCT085 20/20 A2991 RMK AO2 LTG DSNT SE T02000195
K4R5 151055Z AUTO 00000KT 10SM SCT065 BKN075 BKN085 20/19 A2991 RMK AO2 T01980194
K4R5 151035Z AUTO 00000KT 10SM SCT070 BKN085 BKN120 20/19 A2992 RMK AO2 T01950192
K4R5 151015Z AUTO 00000KT 10SM SCT070 SCT085 18/18 A2992 RMK AO2 T01810180
K4R5 150955Z AUTO 00000KT 5SM BR CLR 18/17 A2992 RMK AO2 T01770174
K4R5 150935Z AUTO 00000KT 7SM CLR 18/18 A2992 RMK AO2 T01840181
K4R5 150915Z AUTO 00000KT 10SM CLR 19/19 A2992 RMK AO2 LTG DSNT S T01890186
K4R5 150855Z AUTO 00000KT 10SM CLR 19/19 A2992 RMK AO2 T01910187
K4R5 150835Z AUTO 00000KT 10SM CLR 21/20 A2991 RMK AO2 T02050198
K4R5 150815Z AUTO 00000KT 10SM CLR 21/20 A2990 RMK AO2 T02100202
K4R5 150755Z AUTO 00000KT 10SM SCT090 22/20 A2991 RMK AO2 LTG DSNT SE T02150203
K4R5 150735Z AUTO 00000KT 10SM SCT036 SCT060 SCT080 22/21 A2992 RMK AO2 LTG DSNT NE T02200205
K4R5 150715Z AUTO 16005KT 10SM BKN036 BKN060 OVC090 23/19 A2993 RMK AO2 LTG DSNT E T02260193
K4R5 150655Z AUTO 20004KT 10SM TS BKN036 OVC050 23/19 A2993 RMK AO2 LTG DSNT E THRU S T02260190
K4R5 150635Z AUTO 00000KT 10SM SCT047 OVC050 22/19 A2991 RMK AO2 LTG DSNT ALQS T02240191
K4R5 150615Z AUTO 00000KT 10SM TS SCT037 BKN045 BKN050 20/19 A2991 RMK AO2 LTG DSNT NE THRU S T02000191
K4R5 150555Z AUTO 00000KT BKN035 BKN048 BKN120 21/19 A2990 RMK AO2 LTG DSNT NE AND E T02060194 PWINO
K4R5 150535Z AUTO 00000KT 10SM BKN036 BKN043 OVC095 21/19 A2990 RMK AO2 LTG DSNT ALQS T02080193
K4R5 150515Z AUTO 00000KT 10SM BKN043 BKN050 BKN070 21/19 A2991 RMK AO2 LTG DSNT N T02110193
K4R5 150455Z AUTO 00000KT 10SM SCT043 SCT050 SCT065 20/19 A2990 RMK AO2 LTG DSNT NE T02010189
K4R5 150435Z AUTO 00000KT 10SM CLR 20/19 A2991 RMK AO2 LTG DSNT N NE AND S T01960188
K4R5 150415Z AUTO 00000KT 10SM SCT050 20/19 A2992 RMK AO2 T01980188
K4R5 150355Z AUTO 00000KT 10SM SCT060 SCT070 20/19 A2991 RMK AO2 T01960187
K4R5 150335Z AUTO 00000KT 10SM BKN060 BKN070 20/19 A2991 RMK AO2 T02020190
K4R5 150315Z AUTO 00000KT 10SM CLR 20/19 A2992 RMK AO2 T01970188
K4R5 150255Z AUTO 00000KT 10SM CLR 20/19 A2992 RMK AO2 LTG DSNT NE T01980188
K4R5 150235Z AUTO 00000KT 10SM CLR 20/19 A2993 RMK AO2 LTG DSNT SW T02020190
K4R5 150215Z AUTO 00000KT 10SM CLR 21/19 A2994 RMK AO2 T02060190
K4R5 150155Z AUTO 00000KT 10SM CLR 21/19 A2995 RMK AO2 T02130190
K4R5 150135Z AUTO 00000KT 10SM CLR 22/19 A2995 RMK AO2 T02160190
K4R5 150115Z AUTO 00000KT 10SM CLR 22/19 A2994 RMK AO2 T02240188